createdAt,value
2018-12-09T00:01:02.924Z,4.80
2018-12-09T00:03:31.485Z,4.80
2018-12-09T00:06:00.165Z,4.90
2018-12-09T00:08:28.755Z,4.90
2018-12-09T00:10:57.411Z,4.90
2018-12-09T00:13:25.976Z,4.90
2018-12-09T00:15:55.381Z,4.90
2018-12-09T00:18:23.921Z,4.90
2018-12-09T00:20:52.466Z,4.90
2018-12-09T00:23:21.059Z,4.90
2018-12-09T00:25:49.715Z,4.90
2018-12-09T00:28:18.613Z,4.80
2018-12-09T00:30:47.164Z,4.80
2018-12-09T00:33:15.867Z,4.90
2018-12-09T00:35:45.282Z,4.90
2018-12-09T00:38:14.613Z,4.90
2018-12-09T00:40:43.895Z,4.80
2018-12-09T00:43:12.485Z,4.70
2018-12-09T00:45:42.078Z,4.70
2018-12-09T00:48:10.812Z,4.70
2018-12-09T00:50:39.839Z,4.60
2018-12-09T00:53:08.764Z,4.50
2018-12-09T00:55:37.341Z,4.50
2018-12-09T00:58:07.618Z,4.40
2018-12-09T01:00:36.316Z,4.40
2018-12-09T01:03:05.267Z,4.30
2018-12-09T01:05:33.892Z,4.40
2018-12-09T01:08:04.324Z,4.40
2018-12-09T01:10:33.010Z,4.40
2018-12-09T01:13:01.621Z,4.40
2018-12-09T01:15:30.532Z,4.30
2018-12-09T01:17:59.165Z,4.30
2018-12-09T01:20:29.191Z,4.30
2018-12-09T01:22:57.776Z,4.20
2018-12-09T01:25:26.313Z,4.30
2018-12-09T01:27:55.026Z,4.20
2018-12-09T01:30:24.130Z,4.20
2018-12-09T01:32:52.759Z,4.30
2018-12-09T01:35:22.845Z,4.20
2018-12-09T01:37:51.392Z,4.30
2018-12-09T01:40:19.994Z,4.40
2018-12-09T01:42:48.644Z,4.30
2018-12-09T01:45:17.216Z,4.30
2018-12-09T01:47:45.818Z,4.40
2018-12-09T01:50:14.744Z,4.50
2018-12-09T01:52:43.760Z,4.50
2018-12-09T01:55:12.447Z,4.60
2018-12-09T01:57:41.370Z,4.70
2018-12-09T02:00:09.893Z,4.70
2018-12-09T02:02:38.430Z,4.60
2018-12-09T02:05:09.019Z,4.70
2018-12-09T02:07:38.323Z,4.70
2018-12-09T02:10:07.228Z,4.70
2018-12-09T02:12:36.021Z,4.70
2018-12-09T02:15:04.756Z,4.70
2018-12-09T02:17:33.343Z,4.70
2018-12-09T02:20:01.900Z,4.70
2018-12-09T02:22:30.455Z,4.70
2018-12-09T02:24:59.326Z,4.70
2018-12-09T02:27:27.970Z,4.70
2018-12-09T02:29:56.790Z,4.70
2018-12-09T02:32:25.510Z,4.70
2018-12-09T02:34:54.247Z,4.80
2018-12-09T02:37:22.853Z,4.70
2018-12-09T02:39:51.388Z,4.70
2018-12-09T02:42:20.006Z,4.70
2018-12-09T02:44:48.704Z,4.70
2018-12-09T02:47:17.204Z,4.70
2018-12-09T02:49:46.723Z,4.80
2018-12-09T02:52:15.698Z,4.80
2018-12-09T02:54:44.322Z,4.80
2018-12-09T02:57:12.883Z,4.80
2018-12-09T02:59:41.497Z,4.90
2018-12-09T03:02:10.739Z,4.90
2018-12-09T03:04:39.347Z,4.90
2018-12-09T03:07:07.940Z,5.00
2018-12-09T03:09:36.629Z,4.90
2018-12-09T03:12:05.656Z,5.00
2018-12-09T03:14:34.191Z,5.00
2018-12-09T03:17:02.753Z,5.00
2018-12-09T03:19:31.429Z,5.00
2018-12-09T03:22:00.114Z,4.90
2018-12-09T03:24:29.308Z,5.00
2018-12-09T03:26:57.811Z,5.00
2018-12-09T03:29:26.380Z,5.00
2018-12-09T03:31:55.033Z,5.00
2018-12-09T03:34:23.708Z,5.00
2018-12-09T03:36:52.298Z,4.90
2018-12-09T03:39:20.829Z,5.00
2018-12-09T03:41:49.403Z,5.10
2018-12-09T03:44:18.088Z,5.00
2018-12-09T03:46:46.587Z,4.90
2018-12-09T03:49:15.204Z,4.90
2018-12-09T03:51:43.783Z,5.10
2018-12-09T03:54:12.433Z,5.00
2018-12-09T03:56:40.940Z,5.00
2018-12-09T03:59:09.901Z,5.00
2018-12-09T04:01:38.495Z,5.00
2018-12-09T04:04:07.616Z,5.00
2018-12-09T04:06:36.142Z,5.00
2018-12-09T04:09:05.699Z,4.90
2018-12-09T04:11:34.276Z,4.90
2018-12-09T04:14:02.901Z,4.80
2018-12-09T04:16:31.649Z,4.60
2018-12-09T04:19:00.184Z,4.60
2018-12-09T04:21:29.308Z,4.50
2018-12-09T04:23:57.838Z,4.40
2018-12-09T04:26:26.369Z,4.40
2018-12-09T04:28:54.894Z,4.30
2018-12-09T04:31:23.454Z,4.20
2018-12-09T04:33:52.071Z,4.20
2018-12-09T04:36:20.660Z,4.10
2018-12-09T04:38:49.229Z,4.00
2018-12-09T04:41:17.764Z,4.00
2018-12-09T04:43:46.368Z,4.10
2018-12-09T04:46:15.060Z,4.10
2018-12-09T04:48:44.160Z,4.00
2018-12-09T04:51:12.714Z,4.00
2018-12-09T04:53:41.254Z,3.90
2018-12-09T04:56:10.230Z,3.80
2018-12-09T04:58:39.448Z,3.70
2018-12-09T05:01:08.646Z,3.60
2018-12-09T05:03:37.171Z,3.60
2018-12-09T05:06:05.727Z,3.60
2018-12-09T05:08:34.262Z,3.50
2018-12-09T05:11:02.880Z,3.50
2018-12-09T05:13:31.435Z,3.50
2018-12-09T05:16:00.013Z,3.40
2018-12-09T05:18:28.583Z,3.50
2018-12-09T05:20:57.149Z,3.40
2018-12-09T05:23:26.605Z,3.50
2018-12-09T05:25:55.109Z,3.40
2018-12-09T05:28:23.683Z,3.50
2018-12-09T05:30:52.551Z,3.40
2018-12-09T05:33:21.246Z,3.30
2018-12-09T05:35:50.515Z,3.40
2018-12-09T05:38:19.126Z,3.30
2018-12-09T05:40:48.117Z,3.20
2018-12-09T05:43:16.875Z,3.20
2018-12-09T05:45:45.976Z,3.30
2018-12-09T05:48:15.111Z,3.20
2018-12-09T05:50:43.757Z,3.20
2018-12-09T05:53:12.347Z,3.20
2018-12-09T05:55:41.102Z,3.10
2018-12-09T05:58:09.653Z,3.20
2018-12-09T06:00:38.603Z,3.20
2018-12-09T06:03:07.159Z,3.20
2018-12-09T06:05:36.689Z,3.30
2018-12-09T06:08:05.265Z,3.20
2018-12-09T06:10:34.039Z,3.10
2018-12-09T06:13:02.691Z,3.10
2018-12-09T06:15:37.605Z,3.20
2018-12-09T06:18:06.337Z,3.10
2018-12-09T06:20:34.875Z,3.10
2018-12-09T06:23:03.502Z,3.10
2018-12-09T06:25:32.130Z,3.10
2018-12-09T06:28:01.128Z,3.00
2018-12-09T06:30:31.244Z,3.00
2018-12-09T06:32:59.863Z,2.90
2018-12-09T06:35:28.438Z,2.90
2018-12-09T06:37:57.085Z,3.00
2018-12-09T06:40:28.288Z,2.90
2018-12-09T06:42:56.993Z,2.90
2018-12-09T06:45:25.615Z,2.90
2018-12-09T06:47:54.191Z,2.80
2018-12-09T06:50:22.706Z,2.80
2018-12-09T06:52:51.227Z,3.00
2018-12-09T06:55:19.811Z,3.00
2018-12-09T06:57:48.391Z,3.00
2018-12-09T07:00:17.048Z,3.10
2018-12-09T07:02:45.644Z,3.20
2018-12-09T07:05:14.376Z,3.20
2018-12-09T07:07:42.928Z,3.20
2018-12-09T07:10:11.466Z,3.40
2018-12-09T07:12:40.076Z,3.40
2018-12-09T07:15:09.324Z,3.50
2018-12-09T07:17:37.920Z,3.60
2018-12-09T07:20:08.015Z,3.70
2018-12-09T07:22:36.569Z,3.70
2018-12-09T07:25:05.758Z,3.60
2018-12-09T07:27:35.034Z,3.60
2018-12-09T07:30:03.636Z,3.50
2018-12-09T07:32:32.340Z,3.60
2018-12-09T07:35:00.849Z,3.60
2018-12-09T07:37:29.589Z,3.60
2018-12-09T07:39:58.542Z,3.70
2018-12-09T07:42:27.140Z,3.70
2018-12-09T07:44:55.676Z,3.70
2018-12-09T07:47:24.221Z,3.70
2018-12-09T07:49:52.795Z,3.80
2018-12-09T07:52:21.559Z,3.80
2018-12-09T07:54:50.092Z,3.90
2018-12-09T07:57:18.691Z,3.90
2018-12-09T07:59:47.355Z,3.90
2018-12-09T08:02:15.972Z,3.90
2018-12-09T08:04:45.407Z,4.00
2018-12-09T08:07:14.123Z,4.00
2018-12-09T08:09:42.889Z,4.00
2018-12-09T08:12:11.522Z,4.00
2018-12-09T08:14:40.141Z,3.80
2018-12-09T08:17:08.685Z,3.80
2018-12-09T08:19:37.357Z,3.80
2018-12-09T08:22:05.935Z,3.80
2018-12-09T08:24:34.972Z,3.70
2018-12-09T08:27:03.572Z,3.60
2018-12-09T08:29:32.711Z,3.70
2018-12-09T08:32:01.250Z,3.70
2018-12-09T08:34:29.783Z,3.80
2018-12-09T08:36:58.339Z,3.80
2018-12-09T08:39:27.281Z,3.80
2018-12-09T08:41:55.799Z,3.90
2018-12-09T08:44:24.389Z,3.90
2018-12-09T08:46:52.957Z,4.00
2018-12-09T08:49:21.554Z,3.90
2018-12-09T08:51:50.146Z,3.90
2018-12-09T08:54:18.821Z,3.90
2018-12-09T08:56:47.347Z,3.90
2018-12-09T08:59:16.033Z,4.00
2018-12-09T09:01:44.705Z,4.70
2018-12-09T09:04:13.225Z,4.00
2018-12-09T09:06:41.767Z,4.00
2018-12-09T09:09:10.239Z,3.90
2018-12-09T09:11:38.801Z,3.90
2018-12-09T09:14:07.321Z,3.90
2018-12-09T09:16:36.627Z,3.90
2018-12-09T09:19:05.141Z,3.90
2018-12-09T09:21:33.748Z,3.90
2018-12-09T09:24:02.457Z,3.90
2018-12-09T09:26:30.983Z,3.80
2018-12-09T09:28:59.550Z,3.90
2018-12-09T09:31:28.069Z,3.80
2018-12-09T09:33:56.604Z,3.90
2018-12-09T09:36:25.162Z,4.00
2018-12-09T09:38:55.759Z,4.00
2018-12-09T09:41:24.363Z,4.10
2018-12-09T09:43:52.885Z,4.20
2018-12-09T09:46:22.052Z,4.20
2018-12-09T09:48:50.822Z,4.10
2018-12-09T09:51:19.370Z,4.10
2018-12-09T09:53:47.897Z,4.10
2018-12-09T09:56:16.450Z,4.10
2018-12-09T09:58:45.006Z,4.10
2018-12-09T10:01:13.652Z,4.20
2018-12-09T10:03:42.214Z,4.10
2018-12-09T10:06:10.746Z,4.10
2018-12-09T10:08:39.331Z,4.00
2018-12-09T10:11:07.863Z,4.10
2018-12-09T10:13:36.532Z,4.00
2018-12-09T10:16:05.667Z,4.10
2018-12-09T10:18:34.192Z,4.10
2018-12-09T10:21:02.808Z,4.10
2018-12-09T10:23:31.310Z,4.00
2018-12-09T10:25:59.949Z,4.00
2018-12-09T10:28:28.511Z,3.90
2018-12-09T10:30:57.037Z,4.00
2018-12-09T10:33:25.625Z,4.10
2018-12-09T10:35:54.243Z,4.10
2018-12-09T10:38:27.161Z,4.20
2018-12-09T10:40:55.749Z,4.20
2018-12-09T10:43:24.321Z,4.10
2018-12-09T10:45:52.829Z,4.20
2018-12-09T10:48:21.395Z,4.20
2018-12-09T10:50:50.057Z,4.10
2018-12-09T10:53:18.555Z,4.10
2018-12-09T10:55:47.215Z,4.10
2018-12-09T10:58:15.791Z,4.20
2018-12-09T11:00:49.610Z,4.20
2018-12-09T11:03:18.287Z,4.30
2018-12-09T11:05:46.855Z,4.20
2018-12-09T11:08:16.694Z,4.30
2018-12-09T11:10:45.736Z,4.20
2018-12-09T11:13:14.314Z,4.40
2018-12-09T11:15:43.089Z,4.40
2018-12-09T11:18:12.507Z,4.40
2018-12-09T11:20:41.869Z,4.40
2018-12-09T11:23:10.474Z,4.40
2018-12-09T11:25:39.065Z,4.40
2018-12-09T11:28:07.683Z,4.50
2018-12-09T11:30:36.641Z,4.60
2018-12-09T11:33:05.169Z,4.50
2018-12-09T11:35:33.836Z,4.60
2018-12-09T11:38:02.575Z,4.60
2018-12-09T11:40:31.520Z,4.60
2018-12-09T11:43:00.065Z,4.60
2018-12-09T11:45:28.568Z,4.70
2018-12-09T11:47:57.809Z,4.80
2018-12-09T11:50:26.313Z,4.70
2018-12-09T11:52:54.929Z,4.80
2018-12-09T11:55:23.529Z,4.80
2018-12-09T11:57:52.083Z,4.80
2018-12-09T12:00:21.230Z,4.90
2018-12-09T12:02:50.413Z,5.00
2018-12-09T12:05:19.006Z,5.00
2018-12-09T12:07:47.547Z,5.20
2018-12-09T12:10:18.066Z,5.20
2018-12-09T12:12:46.634Z,5.10
2018-12-09T12:15:15.300Z,5.10
2018-12-09T12:17:44.012Z,5.10
2018-12-09T12:20:12.854Z,5.00
2018-12-09T12:22:41.496Z,5.00
2018-12-09T12:25:10.246Z,5.10
2018-12-09T12:27:39.594Z,5.00
2018-12-09T12:30:08.189Z,5.20
2018-12-09T12:32:36.801Z,5.20
2018-12-09T12:35:05.574Z,5.20
2018-12-09T12:37:34.564Z,5.20
2018-12-09T12:40:03.108Z,5.20
2018-12-09T12:42:31.642Z,5.30
2018-12-09T12:45:01.066Z,5.40
2018-12-09T12:47:29.584Z,5.40
2018-12-09T12:49:58.285Z,5.40
2018-12-09T12:52:26.900Z,5.40
2018-12-09T12:54:56.156Z,5.30
2018-12-09T12:57:24.811Z,5.30
2018-12-09T12:59:53.634Z,5.30
2018-12-09T13:02:22.252Z,5.30
2018-12-09T13:04:50.819Z,5.30
2018-12-09T13:07:19.404Z,5.40
2018-12-09T13:09:48.164Z,5.50
2018-12-09T13:12:17.678Z,5.50
2018-12-09T13:14:46.679Z,5.50
2018-12-09T13:17:15.238Z,5.50
2018-12-09T13:19:43.804Z,5.50
2018-12-09T13:22:12.310Z,5.50
2018-12-09T13:24:40.846Z,5.50
2018-12-09T13:27:09.351Z,5.40
2018-12-09T13:29:37.922Z,5.50
2018-12-09T13:32:07.395Z,5.50
2018-12-09T13:34:35.980Z,5.50
2018-12-09T13:37:04.720Z,5.50
2018-12-09T13:39:34.264Z,5.60
2018-12-09T13:42:02.804Z,5.50
2018-12-09T13:44:31.400Z,5.60
2018-12-09T13:47:00.284Z,5.60
2018-12-09T13:49:28.900Z,5.60
2018-12-09T13:51:57.455Z,5.70
2018-12-09T13:54:26.139Z,5.70
2018-12-09T13:56:54.985Z,5.70
2018-12-09T13:59:23.715Z,5.70
2018-12-09T14:01:52.389Z,5.70
2018-12-09T14:04:21.445Z,5.70
2018-12-09T14:06:50.062Z,5.60
2018-12-09T14:09:18.593Z,5.70
2018-12-09T14:11:47.131Z,5.70
2018-12-09T14:14:16.334Z,5.70
2018-12-09T14:16:44.836Z,5.70
2018-12-09T14:19:13.385Z,5.70
2018-12-09T14:21:42.058Z,5.70
2018-12-09T14:24:10.631Z,5.80
2018-12-09T14:26:39.145Z,5.70
2018-12-09T14:29:07.837Z,5.80
2018-12-09T14:31:36.827Z,5.70
2018-12-09T14:34:05.437Z,5.70
2018-12-09T14:36:34.139Z,5.70
2018-12-09T14:39:02.829Z,5.80
2018-12-09T14:41:31.399Z,5.80
2018-12-09T14:43:59.960Z,5.70
2018-12-09T14:46:28.543Z,5.80
2018-12-09T14:48:57.069Z,5.90
2018-12-09T14:51:25.607Z,5.90
2018-12-09T14:53:54.116Z,6.00
2018-12-09T14:56:22.684Z,6.10
2018-12-09T14:58:51.279Z,6.10
2018-12-09T15:01:19.877Z,6.10
2018-12-09T15:03:48.504Z,6.10
2018-12-09T15:06:17.070Z,6.20
2018-12-09T15:08:45.773Z,6.30
2018-12-09T15:11:14.576Z,6.30
2018-12-09T15:13:43.336Z,6.30
2018-12-09T15:16:11.919Z,6.30
2018-12-09T15:18:40.569Z,6.30
2018-12-09T15:21:09.094Z,6.30
2018-12-09T15:23:37.761Z,6.30
2018-12-09T15:26:07.292Z,6.30
2018-12-09T15:28:36.960Z,6.30
2018-12-09T15:31:05.530Z,6.40
2018-12-09T15:33:34.181Z,6.30
2018-12-09T15:36:03.368Z,6.30
2018-12-09T15:38:32.144Z,6.40
2018-12-09T15:41:00.690Z,6.30
2018-12-09T15:43:29.375Z,6.30
2018-12-09T15:45:57.958Z,6.30
2018-12-09T15:48:26.612Z,6.30
2018-12-09T15:50:55.407Z,6.30
2018-12-09T15:53:24.792Z,6.30
2018-12-09T15:55:53.412Z,6.30
2018-12-09T15:58:21.945Z,6.40
2018-12-09T16:00:56.096Z,6.40
2018-12-09T16:03:24.666Z,6.30
2018-12-09T16:05:54.036Z,6.30
2018-12-09T16:08:22.576Z,6.30
2018-12-09T16:10:51.348Z,6.30
2018-12-09T16:13:19.958Z,6.30
2018-12-09T16:15:48.572Z,6.20
2018-12-09T16:18:17.127Z,6.20
2018-12-09T16:20:45.732Z,6.20
2018-12-09T16:23:14.935Z,6.20
2018-12-09T16:25:43.686Z,6.20
2018-12-09T16:28:12.341Z,6.10
2018-12-09T16:30:41.634Z,6.00
2018-12-09T16:33:10.128Z,6.00
2018-12-09T16:35:38.803Z,6.00
2018-12-09T16:38:08.401Z,6.00
2018-12-09T16:40:37.902Z,5.90
2018-12-09T16:43:06.458Z,5.90
2018-12-09T16:45:35.132Z,5.90
2018-12-09T16:48:03.839Z,5.90
2018-12-09T16:50:32.398Z,5.90
2018-12-09T16:53:00.967Z,6.00
2018-12-09T16:55:29.576Z,5.90
2018-12-09T16:57:58.210Z,5.90
2018-12-09T17:00:27.555Z,5.90
2018-12-09T17:02:56.130Z,5.90
2018-12-09T17:05:24.673Z,5.90
2018-12-09T17:07:53.374Z,5.90
2018-12-09T17:10:21.900Z,5.90
2018-12-09T17:12:50.462Z,5.80
2018-12-09T17:15:18.971Z,5.90
2018-12-09T17:17:47.502Z,6.10
2018-12-09T17:20:16.079Z,6.00
2018-12-09T17:22:44.610Z,6.00
2018-12-09T17:25:13.333Z,6.10
2018-12-09T17:27:41.867Z,6.00
2018-12-09T17:30:10.385Z,6.00
2018-12-09T17:32:39.118Z,6.00
2018-12-09T17:35:08.204Z,5.90
2018-12-09T17:37:37.134Z,5.90
2018-12-09T17:40:07.569Z,5.90
2018-12-09T17:42:36.295Z,5.90
2018-12-09T17:45:05.111Z,5.90
2018-12-09T17:47:33.672Z,6.00
2018-12-09T17:50:02.376Z,5.90
2018-12-09T17:52:30.897Z,5.90
2018-12-09T17:54:59.606Z,5.90
2018-12-09T17:57:28.228Z,5.90
2018-12-09T17:59:56.839Z,5.90
2018-12-09T18:02:25.887Z,5.90
2018-12-09T18:04:54.493Z,5.80
2018-12-09T18:07:23.123Z,5.80
2018-12-09T18:09:51.719Z,5.80
2018-12-09T18:12:20.388Z,5.80
2018-12-09T18:14:48.876Z,5.90
2018-12-09T18:17:17.444Z,5.90
2018-12-09T18:19:46.269Z,5.80
2018-12-09T18:22:14.955Z,5.70
2018-12-09T18:24:43.627Z,5.80
2018-12-09T18:27:12.408Z,5.80
2018-12-09T18:29:41.044Z,5.70
2018-12-09T18:32:09.629Z,5.70
2018-12-09T18:34:38.344Z,5.70
2018-12-09T18:37:07.464Z,5.60
2018-12-09T18:39:36.832Z,5.60
2018-12-09T18:42:05.523Z,5.60
2018-12-09T18:44:34.089Z,5.50
2018-12-09T18:47:02.678Z,5.60
2018-12-09T18:49:31.285Z,5.60
2018-12-09T18:51:59.883Z,5.60
2018-12-09T18:54:28.492Z,5.70
2018-12-09T18:56:57.070Z,5.70
2018-12-09T18:59:25.783Z,5.70
2018-12-09T19:01:54.962Z,5.60
2018-12-09T19:04:23.650Z,5.50
2018-12-09T19:06:52.219Z,5.60
2018-12-09T19:09:20.807Z,5.60
2018-12-09T19:11:49.410Z,5.60
2018-12-09T19:14:18.017Z,5.60
2018-12-09T19:16:46.621Z,5.60
2018-12-09T19:19:15.286Z,5.50
2018-12-09T19:21:43.890Z,5.50
2018-12-09T19:24:12.603Z,5.60
2018-12-09T19:26:41.264Z,5.60
2018-12-09T19:29:10.070Z,5.60
2018-12-09T19:31:39.059Z,5.60
2018-12-09T19:34:07.641Z,5.60
2018-12-09T19:36:36.692Z,5.70
2018-12-09T19:39:07.266Z,5.60
2018-12-09T19:41:36.652Z,5.60
2018-12-09T19:44:05.988Z,5.60
2018-12-09T19:46:34.675Z,5.60
2018-12-09T19:49:03.270Z,5.60
2018-12-09T19:51:31.837Z,5.60
2018-12-09T19:54:00.503Z,5.50
2018-12-09T19:56:29.159Z,5.60
2018-12-09T19:58:57.747Z,5.50
2018-12-09T20:01:26.580Z,5.60
2018-12-09T20:03:55.309Z,5.60
2018-12-09T20:06:23.852Z,5.60
2018-12-09T20:08:53.505Z,5.60
2018-12-09T20:11:22.174Z,5.60
2018-12-09T20:13:50.754Z,5.70
2018-12-09T20:16:19.443Z,5.80
2018-12-09T20:18:48.839Z,5.80
2018-12-09T20:21:17.420Z,5.70
2018-12-09T20:23:46.093Z,5.70
2018-12-09T20:26:14.687Z,5.80
2018-12-09T20:28:43.281Z,5.70
2018-12-09T20:31:11.970Z,5.60
2018-12-09T20:33:40.550Z,5.60
2018-12-09T20:36:09.216Z,5.60
2018-12-09T20:38:37.882Z,5.50
2018-12-09T20:41:06.457Z,5.60
2018-12-09T20:43:34.975Z,5.60
2018-12-09T20:46:03.570Z,5.60
2018-12-09T20:48:32.113Z,5.60
2018-12-09T20:51:00.763Z,5.60
2018-12-09T20:53:29.309Z,5.60
2018-12-09T20:55:57.887Z,5.70
2018-12-09T20:58:26.465Z,5.70
2018-12-09T21:00:55.157Z,5.70
2018-12-09T21:03:23.906Z,5.70
2018-12-09T21:05:52.443Z,5.70
2018-12-09T21:08:21.019Z,5.70
2018-12-09T21:10:49.556Z,5.70
2018-12-09T21:13:18.101Z,5.80
2018-12-09T21:15:46.843Z,5.80
2018-12-09T21:18:15.418Z,5.80
2018-12-09T21:20:44.067Z,5.80
2018-12-09T21:23:12.680Z,5.80
2018-12-09T21:25:41.215Z,5.80
2018-12-09T21:28:09.831Z,5.80
2018-12-09T21:30:38.395Z,5.80
2018-12-09T21:33:06.950Z,5.80
2018-12-09T21:35:35.691Z,5.80
2018-12-09T21:38:04.327Z,5.80
2018-12-09T21:40:32.885Z,5.80
2018-12-09T21:43:01.513Z,5.80
2018-12-09T21:45:30.121Z,5.80
2018-12-09T21:47:58.709Z,5.90
2018-12-09T21:50:30.295Z,5.80
2018-12-09T21:52:58.849Z,5.80
2018-12-09T21:55:27.594Z,5.80
2018-12-09T21:57:56.272Z,5.80
2018-12-09T22:00:24.807Z,5.80
2018-12-09T22:02:53.531Z,5.80
2018-12-09T22:05:22.027Z,5.80
2018-12-09T22:07:50.598Z,5.90
2018-12-09T22:10:19.614Z,5.80
2018-12-09T22:12:48.516Z,5.80
2018-12-09T22:15:17.216Z,5.80
2018-12-09T22:17:45.890Z,5.80
2018-12-09T22:20:14.487Z,5.80
2018-12-09T22:22:43.010Z,5.80
2018-12-09T22:25:11.542Z,5.80
2018-12-09T22:27:40.136Z,5.80
2018-12-09T22:30:08.674Z,5.80
2018-12-09T22:32:37.204Z,5.80
2018-12-09T22:35:06.049Z,5.70
2018-12-09T22:37:34.650Z,5.80
2018-12-09T22:40:03.212Z,5.80
2018-12-09T22:42:31.751Z,5.80
2018-12-09T22:45:00.360Z,5.90
2018-12-09T22:47:28.859Z,5.80
2018-12-09T22:49:57.405Z,5.80
2018-12-09T22:52:26.653Z,5.90
2018-12-09T22:54:55.227Z,5.90
2018-12-09T22:57:23.749Z,5.90
2018-12-09T22:59:52.249Z,5.80
2018-12-09T23:02:26.148Z,5.80
2018-12-09T23:04:54.745Z,5.80
2018-12-09T23:07:28.768Z,5.80
2018-12-09T23:09:57.408Z,5.80
2018-12-09T23:12:26.038Z,5.90
2018-12-09T23:14:54.565Z,5.90
2018-12-09T23:17:23.119Z,5.90
2018-12-09T23:19:51.667Z,5.90
2018-12-09T23:22:20.476Z,5.90
2018-12-09T23:24:49.005Z,5.90
2018-12-09T23:27:18.625Z,5.90
2018-12-09T23:29:47.191Z,5.90
2018-12-09T23:32:15.809Z,5.90
2018-12-09T23:34:44.390Z,5.90
2018-12-09T23:37:12.871Z,5.90
2018-12-09T23:39:41.381Z,5.90
2018-12-09T23:42:10.167Z,5.90
2018-12-09T23:44:38.714Z,5.90
2018-12-09T23:47:07.241Z,5.90
2018-12-09T23:49:35.752Z,5.90
2018-12-09T23:52:04.279Z,5.90
2018-12-09T23:54:32.901Z,5.80
2018-12-09T23:57:01.390Z,5.80
2018-12-09T23:59:29.891Z,5.80
